TimeCDT,TemperatureF,Dew PointF,Humidity,Sea Level PressureIn,VisibilityMPH,Wind Direction,Wind SpeedMPH,Gust SpeedMPH,PrecipitationIn,Events,Conditions,WindDirDegrees,DateUTC
12:15 AM,67.3,66.9,99,30.05,10.0,ESE,5.8,-,N/A,,Clear,110,2012-10-23 05:15:00
12:35 AM,67.3,66.2,96,30.04,10.0,East,3.5,-,N/A,,Clear,100,2012-10-23 05:35:00
12:55 AM,66.0,65.5,98,30.04,10.0,Calm,Calm,-,N/A,,Clear,0,2012-10-23 05:55:00
1:35 AM,64.0,64.0,100,30.04,10.0,Calm,Calm,-,0.01,,Clear,0,2012-10-23 06:35:00
1:55 AM,63.7,63.7,100,30.03,10.0,East,3.5,-,0.01,,Clear,90,2012-10-23 06:55:00
2:15 AM,64.8,64.8,100,30.03,10.0,East,5.8,-,N/A,,Clear,100,2012-10-23 07:15:00
2:55 AM,65.3,65.3,100,30.02,10.0,East,3.5,-,N/A,,Clear,90,2012-10-23 07:55:00
3:15 AM,65.3,65.3,100,30.02,10.0,East,3.5,-,N/A,,Clear,80,2012-10-23 08:15:00
3:35 AM,65.3,65.3,100,30.01,10.0,East,4.6,-,N/A,,Clear,90,2012-10-23 08:35:00
3:55 AM,65.5,65.5,100,30.01,7.0,Calm,Calm,-,N/A,,Clear,0,2012-10-23 08:55:00
4:15 AM,65.1,65.1,100,30.01,5.0,Calm,Calm,-,N/A,,Clear,0,2012-10-23 09:15:00
5:15 AM,64.0,64.0,100,30.01,0.5,East,3.5,-,N/A,Fog,Fog,90,2012-10-23 10:15:00
5:35 AM,64.9,64.9,100,30.01,0.8,East,3.5,-,N/A,,Mist,90,2012-10-23 10:35:00
5:55 AM,65.7,65.7,100,30.01,3.0,East,3.5,-,N/A,,Clear,80,2012-10-23 10:55:00
6:35 AM,66.6,66.6,100,30.02,7.0,East,3.5,-,N/A,,Clear,80,2012-10-23 11:35:00
6:55 AM,66.2,66.2,100,30.03,7.0,Calm,Calm,-,N/A,,Clear,0,2012-10-23 11:55:00
7:35 AM,62.4,62.4,100,30.04,0.2,Calm,Calm,-,N/A,Fog,Fog,0,2012-10-23 12:35:00
7:55 AM,63.9,63.9,100,30.04,1.5,Calm,Calm,-,N/A,,Scattered Clouds,0,2012-10-23 12:55:00
8:15 AM,67.5,67.5,100,30.05,10.0,ENE,3.5,-,N/A,,Clear,60,2012-10-23 13:15:00
8:35 AM,68.9,68.9,100,30.05,10.0,East,3.5,-,N/A,,Clear,80,2012-10-23 13:35:00
9:15 AM,73.6,71.2,92,30.06,10.0,East,4.6,-,N/A,,Scattered Clouds,90,2012-10-23 14:15:00
9:55 AM,77.0,70.2,79,30.06,10.0,East,6.9,-,N/A,,Clear,100,2012-10-23 14:55:00
10:15 AM,78.4,69.4,74,30.06,10.0,East,8.1,-,N/A,,Clear,100,2012-10-23 15:15:00
10:55 AM,80.8,69.6,69,30.06,10.0,East,5.8,-,N/A,,Clear,100,2012-10-23 15:55:00
11:15 AM,82.0,69.1,65,30.05,10.0,SE,8.1,-,N/A,,Scattered Clouds,140,2012-10-23 16:15:00
11:35 AM,82.4,67.8,61,30.05,10.0,ESE,9.2,-,N/A,,Clear,110,2012-10-23 16:35:00
11:55 AM,83.5,67.5,58,30.05,10.0,SE,5.8,-,N/A,,Clear,130,2012-10-23 16:55:00
12:15 PM,83.5,66.9,57,30.05,10.0,SSE,5.8,-,N/A,,Scattered Clouds,150,2012-10-23 17:15:00
12:35 PM,83.3,67.5,59,30.04,10.0,SSE,6.9,-,N/A,,Mostly Cloudy,150,2012-10-23 17:35:00
12:55 PM,84.4,66.9,56,30.03,10.0,South,9.2,-,N/A,,Mostly Cloudy,170,2012-10-23 17:55:00
1:15 PM,85.1,66.6,54,30.02,10.0,SSE,9.2,-,N/A,,Scattered Clouds,150,2012-10-23 18:15:00
1:35 PM,85.3,65.5,51,30.01,10.0,SSE,5.8,-,N/A,,Clear,150,2012-10-23 18:35:00
1:55 PM,85.5,65.7,51,30.00,10.0,South,6.9,-,N/A,,Clear,170,2012-10-23 18:55:00
2:35 PM,85.5,64.6,49,30.00,10.0,SE,5.8,-,N/A,,Clear,140,2012-10-23 19:35:00
2:55 PM,86.0,64.8,49,29.99,10.0,South,6.9,-,N/A,,Clear,180,2012-10-23 19:55:00
3:15 PM,85.1,64.6,50,29.99,10.0,South,3.5,-,N/A,,Clear,170,2012-10-23 20:15:00
3:35 PM,85.3,63.9,49,29.99,10.0,SSE,4.6,-,N/A,,Clear,150,2012-10-23 20:35:00
3:55 PM,85.5,64.6,49,29.99,10.0,SSW,8.1,-,N/A,,Clear,200,2012-10-23 20:55:00
4:15 PM,85.1,64.8,50,29.99,10.0,SE,5.8,-,N/A,,Clear,140,2012-10-23 21:15:00
4:35 PM,85.1,64.8,50,29.98,10.0,SE,4.6,-,N/A,,Clear,140,2012-10-23 21:35:00
4:55 PM,84.2,64.2,51,29.98,10.0,SSE,4.6,-,0.01,,Clear,160,2012-10-23 21:55:00
5:15 PM,83.8,63.9,51,29.98,10.0,SSE,5.8,-,N/A,,Clear,160,2012-10-23 22:15:00
5:35 PM,82.2,64.0,54,29.98,10.0,SSE,3.5,-,N/A,,Clear,150,2012-10-23 22:35:00
5:55 PM,80.8,64.9,58,29.99,10.0,Calm,Calm,-,N/A,,Clear,0,2012-10-23 22:55:00
6:15 PM,79.5,65.1,61,29.99,10.0,SE,3.5,-,N/A,,Clear,140,2012-10-23 23:15:00
6:35 PM,77.0,65.5,67,30.00,10.0,Calm,Calm,-,N/A,,Clear,0,2012-10-23 23:35:00
6:55 PM,76.8,64.9,67,30.00,10.0,Calm,Calm,-,N/A,,Clear,0,2012-10-23 23:55:00
7:15 PM,74.7,65.3,73,30.00,10.0,SE,3.5,-,N/A,,Clear,140,2012-10-24 00:15:00
7:35 PM,72.7,65.3,78,30.00,10.0,Calm,Calm,-,N/A,,Clear,0,2012-10-24 00:35:00
7:55 PM,71.1,66.2,85,30.00,10.0,Calm,Calm,-,N/A,,Clear,0,2012-10-24 00:55:00
8:15 PM,68.9,67.1,94,30.01,10.0,Calm,Calm,-,N/A,,Clear,0,2012-10-24 01:15:00
8:35 PM,68.7,66.9,94,30.01,10.0,Calm,Calm,-,N/A,,Clear,0,2012-10-24 01:35:00
8:55 PM,69.8,67.3,92,30.01,10.0,Calm,Calm,-,N/A,,Clear,0,2012-10-24 01:55:00
9:15 PM,67.6,67.5,99,30.02,10.0,Calm,Calm,-,N/A,,Clear,0,2012-10-24 02:15:00
9:35 PM,67.3,66.9,99,30.03,10.0,ENE,5.8,-,N/A,,Clear,60,2012-10-24 02:35:00
9:55 PM,68.9,67.6,96,30.03,10.0,ENE,3.5,-,N/A,,Clear,70,2012-10-24 02:55:00
10:15 PM,68.5,68.0,98,30.03,10.0,Calm,Calm,-,N/A,,Clear,0,2012-10-24 03:15:00
10:35 PM,67.6,67.6,100,30.03,10.0,Calm,Calm,-,N/A,,Clear,0,2012-10-24 03:35:00
10:55 PM,67.1,67.1,100,30.03,10.0,East,3.5,-,N/A,,Clear,90,2012-10-24 03:55:00
11:15 PM,69.1,69.1,100,30.03,10.0,East,3.5,-,N/A,,Clear,100,2012-10-24 04:15:00
11:35 PM,70.2,70.2,100,30.03,10.0,ESE,4.6,-,N/A,,Clear,120,2012-10-24 04:35:00
11:55 PM,71.6,70.0,95,30.03,10.0,ESE,4.6,-,N/A,,Clear,120,2012-10-24 04:55:00